Time;durP1;ratioP1;P1;durP2;ratioP2;P2;SDS_P1;SDS_P2;PMS_P1;PMS_P2;Temp;Humidity;BMP_temperature;BMP_pressure;BME280_temperature;BME280_humidity;BME280_pressure;Samples;Min_cycle;Max_cycle;Signal;HPM_P1;HPM_P2
2022/07/23 00:02:00;;;;;;;3.05;2.42;;;;;;;16.71;100.00;99681.93;1716297;82;21062;-76
2022/07/23 00:04:27;;;;;;;;;;;;;;;16.70;100.00;99679.48;1718524;82;21471;-76
2022/07/23 00:06:53;;;;;;;5.58;2.50;;;;;;;16.73;100.00;99688.47;1720718;82;20108;-76
2022/07/23 00:09:20;;;;;;;4.78;2.62;;;;;;;16.71;100.00;99691.55;1724058;82;21447;-76
2022/07/23 00:11:47;;;;;;;3.87;2.90;;;;;;;16.72;100.00;99685.49;1731202;82;21126;-76
2022/07/23 00:14:15;;;;;;;5.20;3.08;;;;;;;16.69;100.00;99684.16;1719867;82;20952;-75
2022/07/23 00:16:42;;;;;;;4.20;2.90;;;;;;;16.66;100.00;99686.72;1722259;82;21485;-76
2022/07/23 00:19:09;;;;;;;5.12;2.42;;;;;;;16.66;100.00;99686.17;1721170;82;21003;-76
2022/07/23 00:21:36;;;;;;;5.75;2.65;;;;;;;16.71;100.00;99674.24;1702705;82;21150;-77
2022/07/23 00:24:02;;;;;;;;;;;;;;;16.74;100.00;99681.30;1724609;82;21011;-76
2022/07/23 00:26:29;;;;;;;4.90;2.77;;;;;;;16.74;100.00;99679.92;1729514;82;20119;-76
2022/07/23 00:28:55;;;;;;;4.45;2.70;;;;;;;16.65;100.00;99683.16;1721697;82;21031;-76
2022/07/23 00:31:22;;;;;;;4.30;2.35;;;;;;;16.59;100.00;99680.85;1731857;82;21127;-76
2022/07/23 00:33:48;;;;;;;5.60;2.20;;;;;;;16.57;100.00;99679.81;1723835;82;21018;-76
2022/07/23 00:36:17;;;;;;;4.03;2.62;;;;;;;16.58;100.00;99682.78;1725051;82;21068;-76
2022/07/23 00:38:43;;;;;;;3.37;2.70;;;;;;;16.59;100.00;99683.60;1721468;82;21016;-76
2022/07/23 00:41:10;;;;;;;4.00;2.98;;;;;;;16.57;100.00;99689.98;1725951;82;21748;-76
2022/07/23 00:43:36;;;;;;;3.40;2.77;;;;;;;16.51;100.00;99691.21;1721441;82;21034;-76
2022/07/23 00:46:03;;;;;;;3.85;2.27;;;;;;;16.44;100.00;99692.44;1720834;82;21094;-75
2022/07/23 00:48:30;;;;;;;3.58;2.22;;;;;;;16.41;100.00;99687.56;1724108;82;21105;-75
2022/07/23 00:50:57;;;;;;;5.85;2.40;;;;;;;16.43;100.00;99691.39;1721643;82;21071;-76
2022/07/23 00:53:23;;;;;;;4.53;2.15;;;;;;;16.43;100.00;99692.20;1711151;82;21041;-75
2022/07/23 00:55:50;;;;;;;2.90;2.25;;;;;;;16.44;100.00;99697.11;1721017;82;21601;-76
2022/07/23 00:58:17;;;;;;;3.20;2.52;;;;;;;16.41;100.00;99697.18;1719905;81;21499;-76
2022/07/23 01:00:44;;;;;;;3.40;2.50;;;;;;;16.38;100.00;99698.37;1716341;81;21035;-75
2022/07/23 01:03:10;;;;;;;3.83;2.40;;;;;;;16.37;100.00;99698.11;1727130;82;21079;-75
2022/07/23 01:05:38;;;;;;;2.77;2.17;;;;;;;16.40;100.00;99697.52;1695365;83;21043;-75
2022/07/23 01:08:06;;;;;;;4.85;2.70;;;;;;;16.38;100.00;99694.25;1718611;82;21115;-76
2022/07/23 01:10:33;;;;;;;3.17;2.62;;;;;;;16.36;100.00;99701.44;1722161;82;21031;-75
2022/07/23 01:13:04;;;;;;;3.67;2.60;;;;;;;16.35;100.00;99703.93;1721689;82;21048;-75
2022/07/23 01:15:32;;;;;;;4.87;2.85;;;;;;;16.41;100.00;99699.11;1727799;82;21462;-75
2022/07/23 01:17:59;;;;;;;6.53;2.47;;;;;;;16.53;100.00;99697.19;1716937;82;21525;-76
2022/07/23 01:20:27;;;;;;;8.18;3.02;;;;;;;16.58;100.00;99696.53;1719908;82;21032;-75
2022/07/23 01:22:54;;;;;;;6.75;3.12;;;;;;;16.67;100.00;99697.42;1713866;82;21067;-74
2022/07/23 01:25:21;;;;;;;4.12;2.55;;;;;;;16.78;100.00;99702.91;1721065;82;21000;-73
2022/07/23 01:27:52;;;;;;;4.37;2.50;;;;;;;16.80;100.00;99700.66;1728090;82;21083;-73
2022/07/23 01:30:20;;;;;;;7.30;2.60;;;;;;;16.84;100.00;99714.58;1715022;82;21024;-74
2022/07/23 01:32:48;;;;;;;4.97;2.50;;;;;;;16.84;100.00;99709.08;1722882;82;21080;-73
2022/07/23 01:35:14;;;;;;;3.90;2.60;;;;;;;16.76;100.00;99697.45;1725834;82;21038;-75
2022/07/23 01:37:41;;;;;;;3.37;2.52;;;;;;;16.71;100.00;99708.59;1716388;82;21664;-74
2022/07/23 01:40:09;;;;;;;4.12;2.70;;;;;;;16.56;100.00;99710.34;1722786;82;21534;-75
2022/07/23 01:42:37;;;;;;;4.85;2.85;;;;;;;16.45;100.00;99712.48;1715087;82;21095;-74
2022/07/23 01:45:05;;;;;;;4.80;2.77;;;;;;;16.42;100.00;99715.86;1729760;82;21058;-74
2022/07/23 01:47:34;;;;;;;6.17;3.40;;;;;;;16.40;100.00;99718.91;1728654;82;21559;-74
2022/07/23 01:50:01;;;;;;;4.12;3.27;;;;;;;16.38;100.00;99720.34;1719549;82;20966;-75
2022/07/23 01:52:43;;;;;;;5.00;3.55;;;;;;;16.33;100.00;99722.64;1713495;82;21638;-76
2022/07/23 01:55:09;;;;;;;4.87;3.00;;;;;;;16.30;100.00;99719.70;1716311;82;21054;-76
2022/07/23 01:57:38;;;;;;;7.12;3.85;;;;;;;16.34;100.00;99721.52;1728355;82;21664;-75
2022/07/23 02:00:08;;;;;;;5.75;3.52;;;;;;;16.41;100.00;99724.66;1732643;82;21019;-75
2022/07/23 02:02:41;;;;;;;6.50;3.45;;;;;;;16.42;100.00;99727.66;1658002;82;21039;-76
2022/07/23 02:05:09;;;;;;;4.55;3.00;;;;;;;16.44;100.00;99724.59;1726185;82;21055;-76
2022/07/23 02:07:37;;;;;;;4.72;2.67;;;;;;;16.47;100.00;99730.05;1736384;82;21059;-76
2022/07/23 02:10:06;;;;;;;4.95;3.08;;;;;;;16.48;100.00;99724.78;1729656;82;21083;-76
2022/07/23 02:12:33;;;;;;;5.45;3.15;;;;;;;16.44;100.00;99722.66;1732670;82;21118;-75
2022/07/23 02:15:00;;;;;;;4.10;3.17;;;;;;;16.41;100.00;99728.78;1729954;82;21034;-76
2022/07/23 02:17:27;;;;;;;5.08;3.20;;;;;;;16.38;100.00;99727.21;1731293;82;21134;-75
2022/07/23 02:19:53;;;;;;;4.15;2.85;;;;;;;16.37;100.00;99725.58;1730678;82;21016;-77
2022/07/23 02:22:21;;;;;;;5.95;3.08;;;;;;;16.38;100.00;99723.91;1732444;82;21078;-76
2022/07/23 02:24:49;;;;;;;4.78;2.83;;;;;;;16.38;100.00;99728.59;1732518;82;20980;-76
2022/07/23 02:27:15;;;;;;;4.28;3.27;;;;;;;16.32;100.00;99727.09;1724047;82;21118;-76
2022/07/23 02:29:43;;;;;;;3.58;2.45;;;;;;;16.23;100.00;99730.30;1735551;82;20971;-75
2022/07/23 02:32:10;;;;;;;7.22;2.90;;;;;;;16.17;100.00;99733.73;1722081;82;21517;-76
2022/07/23 02:34:37;;;;;;;4.72;2.90;;;;;;;16.14;100.00;99728.86;1732036;82;21495;-76
2022/07/23 02:37:04;;;;;;;4.40;3.02;;;;;;;16.14;100.00;99732.98;1725809;82;21590;-76
2022/07/23 02:39:31;;;;;;;6.05;2.60;;;;;;;16.13;100.00;99731.34;1729094;82;20999;-75
2022/07/23 02:41:59;;;;;;;4.65;2.95;;;;;;;16.08;100.00;99731.47;1725379;82;21491;-77
2022/07/23 02:44:26;;;;;;;3.45;2.92;;;;;;;16.04;100.00;99731.02;1726668;82;21480;-76
2022/07/23 02:46:53;;;;;;;5.72;2.95;;;;;;;16.01;100.00;99737.13;1737164;82;21518;-76
2022/07/23 02:49:20;;;;;;;3.62;2.98;;;;;;;16.03;100.00;99736.25;1728630;82;21671;-76
2022/07/23 02:51:47;;;;;;;3.72;2.90;;;;;;;16.07;100.00;99738.08;1736754;82;21166;-75
2022/07/23 02:54:13;;;;;;;4.10;2.90;;;;;;;16.08;100.00;99734.22;1730989;82;21032;-76
2022/07/23 02:56:41;;;;;;;4.20;3.12;;;;;;;16.05;100.00;99738.14;1737124;82;21165;-76
2022/07/23 02:59:08;;;;;;;4.08;2.90;;;;;;;15.96;100.00;99741.34;1719073;82;21044;-75
2022/07/23 03:01:35;;;;;;;4.70;2.98;;;;;;;15.92;100.00;99745.26;1720930;82;21047;-76
2022/07/23 03:04:01;;;;;;;3.30;2.92;;;;;;;15.97;100.00;99745.72;1718850;82;21043;-76
2022/07/23 03:06:28;;;;;;;3.70;3.12;;;;;;;16.04;100.00;99749.68;1719338;82;21051;-76
2022/07/23 03:08:55;;;;;;;5.15;3.10;;;;;;;16.08;100.00;99753.44;1720371;82;21039;-76
2022/07/23 03:11:23;;;;;;;5.70;3.58;;;;;;;16.10;100.00;99760.80;1723675;82;21083;-76
2022/07/23 03:13:50;;;;;;;5.15;3.05;;;;;;;16.11;100.00;99762.43;1722344;82;21008;-75
2022/07/23 03:16:17;;;;;;;4.60;3.20;;;;;;;16.16;100.00;99767.80;1718952;82;21102;-76
2022/07/23 03:18:44;;;;;;;3.45;2.92;;;;;;;16.26;100.00;99764.83;1717602;82;21027;-76
2022/07/23 03:21:11;;;;;;;3.90;2.75;;;;;;;16.36;100.00;99759.13;1724222;82;21043;-76
2022/07/23 03:23:39;;;;;;;4.60;3.50;;;;;;;16.43;100.00;99770.52;1716328;82;21534;-76
2022/07/23 03:26:06;;;;;;;5.78;3.37;;;;;;;16.46;100.00;99769.62;1730487;82;21119;-77
2022/07/23 03:28:32;;;;;;;5.30;2.98;;;;;;;16.49;100.00;99773.94;1729250;82;21031;-76
2022/07/23 03:30:59;;;;;;;4.42;3.15;;;;;;;16.53;100.00;99775.51;1716096;82;21059;-76
2022/07/23 03:33:25;;;;;;;;;;;;;;;16.59;100.00;99772.36;1714033;82;21047;-76
2022/07/23 03:35:53;;;;;;;5.90;3.22;;;;;;;16.64;100.00;99772.25;1724164;82;20421;-76
2022/07/23 03:38:25;;;;;;;8.88;3.58;;;;;;;16.58;100.00;99771.31;1717391;82;21052;-76
2022/07/23 03:40:54;;;;;;;5.45;3.40;;;;;;;16.58;100.00;99774.06;1717707;82;21441;-76
2022/07/23 03:43:21;;;;;;;4.00;3.12;;;;;;;16.64;100.00;99775.56;1710171;82;21000;-76
2022/07/23 03:45:47;;;;;;;5.75;3.70;;;;;;;16.81;100.00;99771.57;1723306;82;21039;-76
2022/07/23 03:48:14;;;;;;;4.87;3.50;;;;;;;17.00;100.00;99770.83;1720361;82;21032;-76
2022/07/23 03:50:41;;;;;;;5.67;3.83;;;;;;;17.19;100.00;99773.36;1731052;82;21030;-76
2022/07/23 03:53:07;;;;;;;6.40;4.25;;;;;;;17.43;100.00;99776.57;1735912;81;21079;-76
2022/07/23 03:55:36;;;;;;;5.47;3.92;;;;;;;17.72;100.00;99765.89;1707249;82;21558;-76
2022/07/23 03:58:03;;;;;;;5.50;3.20;;;;;;;18.08;100.00;99760.74;1722686;82;21062;-76
2022/07/23 04:00:29;;;;;;;6.75;3.30;;;;;;;18.39;100.00;99754.55;1734002;82;21011;-77
2022/07/23 04:02:57;;;;;;;4.80;3.10;;;;;;;18.70;100.00;99751.70;1734447;82;21118;-76
2022/07/23 04:05:24;;;;;;;3.55;2.75;;;;;;;19.00;100.00;99747.11;1737511;82;21022;-76
2022/07/23 04:07:54;;;;;;;6.37;3.10;;;;;;;19.30;100.00;99740.00;1738946;82;21561;-76
2022/07/23 04:10:22;;;;;;;6.12;3.30;;;;;;;19.57;100.00;99737.41;1726333;82;21011;-76
2022/07/23 04:12:50;;;;;;;5.28;3.50;;;;;;;19.86;100.00;99739.38;1736462;82;21098;-76
2022/07/23 04:15:16;;;;;;;6.15;3.10;;;;;;;20.12;100.00;99735.09;1730813;82;21046;-76
2022/07/23 04:17:46;;;;;;;6.62;2.92;;;;;;;20.32;100.00;99735.72;1738596;82;21526;-77
2022/07/23 04:20:13;;;;;;;7.37;3.30;;;;;;;20.50;100.00;99738.59;1743517;82;21450;-76
2022/07/23 04:22:42;;;;;;;4.92;3.10;;;;;;;20.67;100.00;99741.78;1736751;82;21138;-76
2022/07/23 04:25:09;;;;;;;4.35;3.00;;;;;;;20.83;100.00;99735.28;1741435;82;21027;-76
2022/07/23 04:27:37;;;;;;;4.30;3.10;;;;;;;21.05;100.00;99733.28;1739324;82;21146;-76
2022/07/23 04:30:05;;;;;;;5.35;3.10;;;;;;;21.30;100.00;99733.05;1744813;82;20971;-77
2022/07/23 04:32:32;;;;;;;5.20;3.33;;;;;;;21.60;100.00;99735.06;1725833;81;21086;-76
2022/07/23 04:35:00;;;;;;;7.35;3.30;;;;;;;22.04;100.00;99740.85;1737482;82;21007;-76
2022/07/23 04:37:28;;;;;;;4.85;3.05;;;;;;;22.41;100.00;99736.88;1737788;82;21024;-75
2022/07/23 04:39:56;;;;;;;5.47;3.30;;;;;;;22.68;100.00;99733.36;1732189;82;21093;-76
2022/07/23 04:42:24;;;;;;;6.20;3.20;;;;;;;22.89;100.00;99730.38;1731400;82;21526;-76
2022/07/23 04:44:51;;;;;;;4.55;2.98;;;;;;;23.09;100.00;99732.16;1732206;82;21083;-76
2022/07/23 04:47:17;;;;;;;6.45;2.90;;;;;;;23.40;100.00;99725.84;1732521;82;21681;-76
2022/07/23 04:49:44;;;;;;;5.45;3.00;;;;;;;23.67;100.00;99730.53;1739183;82;21023;-76
2022/07/23 04:52:11;;;;;;;3.67;2.80;;;;;;;23.85;100.00;99727.37;1729828;82;21090;-76
2022/07/23 04:54:38;;;;;;;6.50;3.20;;;;;;;23.93;100.00;99725.81;1733222;82;21050;-77
2022/07/23 04:57:06;;;;;;;4.62;2.75;;;;;;;24.01;100.00;99724.81;1731201;82;21075;-76
2022/07/23 04:59:34;;;;;;;4.50;3.20;;;;;;;24.24;100.00;99722.99;1724582;82;21027;-76
2022/07/23 05:02:02;;;;;;;4.12;2.60;;;;;;;24.37;100.00;99718.13;1734630;82;21032;-76
2022/07/23 05:04:31;;;;;;;4.10;2.47;;;;;;;24.64;100.00;99723.27;1707850;82;21031;-76
2022/07/23 05:06:58;;;;;;;3.42;2.00;;;;;;;24.75;100.00;99718.14;1720556;82;21613;-77
2022/07/23 05:09:27;;;;;;;3.42;2.00;;;;;;;24.81;100.00;99714.47;1732128;82;21442;-78
2022/07/23 05:11:53;;;;;;;5.40;2.12;;;;;;;24.90;100.00;99715.09;1737708;77;21732;-77
2022/07/23 05:14:21;;;;;;;4.80;2.00;;;;;;;24.89;100.00;99711.27;1721663;82;21511;-76
2022/07/23 05:16:50;;;;;;;2.65;1.82;;;;;;;24.95;100.00;99709.21;1716174;82;21126;-77
2022/07/23 05:19:18;;;;;;;4.78;1.67;;;;;;;24.94;100.00;99707.59;1712972;82;21082;-76
2022/07/23 05:21:46;;;;;;;2.87;1.40;;;;;;;25.15;100.00;99718.36;1717858;82;21538;-77
2022/07/23 05:24:13;;;;;;;4.85;1.57;;;;;;;25.40;100.00;99716.81;1694129;82;21000;-77
2022/07/23 05:26:39;;;;;;;2.77;1.52;;;;;;;25.59;100.00;99717.38;1727880;82;21142;-78
2022/07/23 05:29:06;;;;;;;3.77;1.40;;;;;;;25.74;100.00;99717.25;1728390;82;21027;-77
2022/07/23 05:31:34;;;;;;;3.20;1.30;;;;;;;25.85;100.00;99716.62;1719051;82;21060;-78
2022/07/23 05:34:01;;;;;;;2.10;1.50;;;;;;;25.94;100.00;99717.14;1720519;82;21538;-77
2022/07/23 05:36:28;;;;;;;2.67;1.05;;;;;;;26.13;100.00;99710.89;1732971;82;21059;-75
2022/07/23 05:38:57;;;;;;;2.33;1.27;;;;;;;26.26;100.00;99718.47;1725741;82;21042;-78
2022/07/23 05:41:23;;;;;;;3.87;1.20;;;;;;;26.30;100.00;99726.30;1733773;82;21978;-78
2022/07/23 05:43:50;;;;;;;3.27;1.30;;;;;;;26.46;100.00;99728.92;1728599;82;21035;-78
2022/07/23 05:46:17;;;;;;;2.37;1.35;;;;;;;26.53;100.00;99726.23;1690535;82;21516;-76
2022/07/23 05:48:50;;;;;;;1.92;1.10;;;;;;;26.49;100.00;99722.00;1726595;82;21051;-75
2022/07/23 05:51:21;;;;;;;2.22;1.12;;;;;;;26.50;100.00;99726.98;1722482;82;21055;-76
2022/07/23 05:53:48;;;;;;;2.20;1.00;;;;;;;26.50;100.00;99722.80;1668012;82;21046;-76
2022/07/23 05:56:17;;;;;;;2.65;1.00;;;;;;;26.43;100.00;99728.29;1737848;81;21133;-74
2022/07/23 05:58:44;;;;;;;2.65;0.90;;;;;;;26.50;100.00;99725.59;1718724;82;21448;-74
2022/07/23 06:01:11;;;;;;;2.02;0.88;;;;;;;26.47;100.00;99722.95;1735762;82;21079;-74
2022/07/23 06:03:42;;;;;;;1.70;0.85;;;;;;;26.56;100.00;99721.28;1741602;82;21094;-75
2022/07/23 06:06:10;;;;;;;4.80;0.88;;;;;;;26.72;100.00;99726.06;1743532;82;21552;-75
2022/07/23 06:08:38;;;;;;;3.00;1.10;;;;;;;26.90;100.00;99721.53;1744566;82;21096;-75
2022/07/23 06:11:07;;;;;;;3.30;1.07;;;;;;;27.02;100.00;99727.46;1741720;82;21074;-74
2022/07/23 06:13:35;;;;;;;4.50;0.93;;;;;;;26.88;100.00;99726.70;1736421;82;21058;-75
2022/07/23 06:16:02;;;;;;;3.65;0.90;;;;;;;26.84;100.00;99732.84;1723541;82;21016;-77
2022/07/23 06:18:31;;;;;;;5.20;1.10;;;;;;;26.90;100.00;99728.52;1734347;82;21039;-76
2022/07/23 06:20:58;;;;;;;2.25;0.90;;;;;;;26.94;100.00;99722.97;1751892;82;21050;-76
2022/07/23 06:23:24;;;;;;;2.45;1.00;;;;;;;27.00;100.00;99728.42;1748547;82;20999;-76
2022/07/23 06:25:51;;;;;;;2.83;1.12;;;;;;;27.05;100.00;99725.30;1739322;82;21061;-76
2022/07/23 06:28:17;;;;;;;3.15;0.90;;;;;;;27.06;100.00;99728.31;1735822;82;21055;-76
2022/07/23 06:30:45;;;;;;;3.20;0.80;;;;;;;27.17;96.81;99734.83;1737134;82;21490;-75
2022/07/23 06:33:12;;;;;;;3.33;0.90;;;;;;;27.18;100.00;99740.02;1733285;82;21043;-75
2022/07/23 06:35:39;;;;;;;2.87;1.12;;;;;;;27.15;95.99;99737.98;1742430;82;20995;-75
2022/07/23 06:38:07;;;;;;;1.77;1.15;;;;;;;27.25;97.08;99728.69;1729341;82;21122;-76
2022/07/23 06:40:34;;;;;;;1.72;0.85;;;;;;;27.27;97.53;99733.32;1737455;82;20999;-76
2022/07/23 06:43:03;;;;;;;4.53;1.00;;;;;;;27.29;97.09;99733.14;1735829;81;21023;-76
2022/07/23 06:45:30;;;;;;;3.42;1.20;;;;;;;27.43;95.96;99733.87;1750881;81;21038;-74
2022/07/23 06:47:57;;;;;;;2.45;0.95;;;;;;;27.60;92.71;99734.66;1735874;82;21094;-75
2022/07/23 06:50:24;;;;;;;3.70;1.00;;;;;;;27.64;88.91;99718.72;1742873;82;21074;-74
2022/07/23 06:52:51;;;;;;;2.17;0.80;;;;;;;27.77;88.73;99724.84;1747917;82;21043;-75
2022/07/23 06:55:17;;;;;;;4.35;0.90;;;;;;;27.95;88.49;99720.19;1740758;82;21038;-75
2022/07/23 06:57:45;;;;;;;2.80;0.95;;;;;;;27.91;85.57;99717.96;1729781;82;21093;-76
2022/07/23 07:00:13;;;;;;;4.75;1.00;;;;;;;27.77;80.96;99722.05;1731361;82;21038;-74
2022/07/23 07:02:40;;;;;;;2.05;0.90;;;;;;;27.62;76.14;99721.11;1736409;82;21106;-76
2022/07/23 07:05:07;;;;;;;3.20;1.00;;;;;;;27.38;80.70;99726.66;1737837;82;21046;-74
2022/07/23 07:07:35;;;;;;;3.33;0.60;;;;;;;27.36;88.66;99731.00;1733149;82;21059;-74
2022/07/23 07:10:05;;;;;;;1.95;0.95;;;;;;;27.34;82.05;99723.61;1729492;82;21082;-75
2022/07/23 07:12:31;;;;;;;1.55;0.80;;;;;;;27.29;86.13;99722.55;1746684;82;21023;-74
2022/07/23 07:14:59;;;;;;;2.25;0.90;;;;;;;27.42;82.27;99724.67;1720236;82;21035;-74
2022/07/23 07:17:26;;;;;;;1.90;0.72;;;;;;;27.60;79.93;99720.09;1738718;82;21058;-75
2022/07/23 07:19:53;;;;;;;2.30;0.95;;;;;;;27.73;83.52;99725.41;1736684;82;21087;-74
2022/07/23 07:22:20;;;;;;;2.98;1.20;;;;;;;27.83;77.61;99717.09;1734476;82;21107;-69
2022/07/23 07:24:47;;;;;;;2.37;1.17;;;;;;;27.72;79.50;99721.80;1725488;82;21142;-77
2022/07/23 07:27:29;;;;;;;3.62;1.12;;;;;;;27.88;82.45;99729.93;1739205;82;21159;-74
2022/07/23 07:29:56;;;;;;;3.02;1.90;;;;;;;27.94;85.58;99721.38;1741143;82;21062;-74
2022/07/23 07:32:23;;;;;;;3.12;1.20;;;;;;;28.01;84.59;99720.83;1741962;82;21909;-74
2022/07/23 07:34:49;;;;;;;2.60;1.20;;;;;;;28.24;88.45;99719.80;1724607;82;21062;-74
2022/07/23 07:37:16;;;;;;;2.83;1.40;;;;;;;28.42;81.87;99715.11;1733166;82;21099;-74
2022/07/23 07:39:42;;;;;;;4.53;1.10;;;;;;;28.59;89.60;99712.39;1725040;82;21050;-73
2022/07/23 07:42:09;;;;;;;3.10;1.10;;;;;;;28.80;83.73;99719.34;1731659;82;21117;-72
2022/07/23 07:44:36;;;;;;;3.95;1.17;;;;;;;28.81;76.29;99716.72;1731956;82;21074;-74
2022/07/23 07:47:03;;;;;;;4.17;1.05;;;;;;;28.78;82.31;99727.31;1730264;82;21078;-72
2022/07/23 07:49:29;;;;;;;5.03;1.20;;;;;;;28.90;75.64;99730.59;1732339;82;21034;-71
2022/07/23 07:51:56;;;;;;;2.67;0.90;;;;;;;28.88;73.69;99723.75;1731427;82;21098;-74
2022/07/23 07:54:22;;;;;;;1.80;1.17;;;;;;;28.80;73.27;99723.54;1698725;84;21020;-72
2022/07/23 07:56:49;;;;;;;4.35;1.10;;;;;;;28.76;71.91;99722.12;1725843;82;21063;-72
2022/07/23 07:59:16;;;;;;;5.70;1.47;;;;;;;28.63;74.26;99724.42;1735242;82;21672;-72
2022/07/23 08:01:43;;;;;;;2.67;1.12;;;;;;;28.68;74.12;99725.28;1740037;82;21046;-70
2022/07/23 08:04:11;;;;;;;3.85;1.52;;;;;;;28.69;76.17;99719.30;1723571;82;21054;-72
2022/07/23 08:06:38;;;;;;;3.00;1.20;;;;;;;28.64;78.76;99726.03;1745502;82;21082;-69
2022/07/23 08:09:05;;;;;;;5.25;1.40;;;;;;;28.66;76.35;99720.83;1741653;82;21054;-70
2022/07/23 08:11:32;;;;;;;2.22;0.98;;;;;;;28.53;77.45;99725.77;1733041;82;21023;-72
2022/07/23 08:14:00;;;;;;;2.15;0.90;;;;;;;28.51;76.72;99726.18;1712850;82;21537;-72
2022/07/23 08:16:26;;;;;;;1.67;0.90;;;;;;;28.69;74.63;99719.89;1738793;80;21154;-71
2022/07/23 08:18:52;;;;;;;2.58;0.90;;;;;;;28.69;71.78;99724.09;1736132;80;21007;-65
2022/07/23 08:21:19;;;;;;;4.00;0.95;;;;;;;28.51;69.95;99719.77;1742740;82;21105;-64
2022/07/23 08:23:46;;;;;;;1.37;0.90;;;;;;;28.52;72.16;99715.78;1728043;82;21081;-64
2022/07/23 08:26:12;;;;;;;2.65;0.70;;;;;;;28.80;71.05;99714.54;1733539;82;21027;-66
2022/07/23 08:28:39;;;;;;;2.12;0.90;;;;;;;29.06;73.65;99713.41;1731770;82;21050;-66
2022/07/23 08:31:05;;;;;;;2.98;0.98;;;;;;;29.32;67.93;99714.51;1726749;82;21058;-66
2022/07/23 08:33:32;;;;;;;2.75;0.60;;;;;;;29.45;66.47;99705.91;1734396;82;21489;-64
2022/07/23 08:35:58;;;;;;;3.27;0.80;;;;;;;29.50;59.93;99709.73;1746238;82;21059;-65
2022/07/23 08:38:25;;;;;;;4.17;1.25;;;;;;;29.34;60.24;99708.48;1744434;82;20975;-66
2022/07/23 08:40:54;;;;;;;4.20;0.68;;;;;;;29.13;62.72;99712.02;1727091;82;21611;-65
2022/07/23 08:43:24;;;;;;;2.77;0.98;;;;;;;29.14;65.61;99706.63;1722537;82;21014;-66
2022/07/23 08:45:53;;;;;;;0.82;0.55;;;;;;;29.24;61.51;99703.64;1736357;82;20973;-65
2022/07/23 08:48:24;;;;;;;2.95;0.80;;;;;;;29.08;58.27;99710.43;1702617;84;21010;-65
2022/07/23 08:50:54;;;;;;;3.55;0.65;;;;;;;28.89;58.13;99702.95;1728361;82;21051;-66
2022/07/23 08:53:22;;;;;;;2.25;0.80;;;;;;;28.80;63.14;99703.34;1741578;82;20995;-65
2022/07/23 08:55:52;;;;;;;2.80;0.50;;;;;;;28.93;59.06;99706.57;1736594;82;21660;-66
2022/07/23 08:58:19;;;;;;;2.20;0.80;;;;;;;28.99;60.00;99703.58;1730225;81;21063;-65
2022/07/23 09:00:46;;;;;;;4.60;0.95;;;;;;;29.01;57.10;99702.59;1726445;81;20984;-65
2022/07/23 09:03:21;;;;;;;2.47;0.60;;;;;;;29.02;63.22;99709.19;1713288;82;20960;-66
2022/07/23 09:05:50;;;;;;;1.15;0.68;;;;;;;29.26;59.70;99702.09;1724825;82;21050;-66
2022/07/23 09:08:22;;;;;;;2.42;0.70;;;;;;;29.32;56.64;99702.48;1715400;82;21023;-66
2022/07/23 09:10:56;;;;;;;1.80;0.82;;;;;;;29.23;54.24;99693.64;1717349;82;21097;-65
2022/07/23 09:14:37;;;;;;;2.20;0.70;;;;;;;29.12;57.55;99691.59;1800997;78;23279;-65
2022/07/23 09:17:16;;;;;;;1.90;0.80;;;;;;;28.96;55.76;99691.77;1734531;81;21569;-65
2022/07/23 09:19:44;;;;;;;2.10;0.93;;;;;;;28.77;57.63;99690.72;1726893;83;20997;-65
2022/07/23 09:22:21;;;;;;;3.30;0.90;;;;;;;28.84;60.96;99685.92;1727861;81;21042;-65
2022/07/23 09:25:13;;;;;;;2.17;0.57;;;;;;;29.00;58.83;99689.78;1727760;81;21576;-65
2022/07/23 09:27:57;;;;;;;1.80;0.72;;;;;;;29.12;57.02;99684.59;1727073;81;21048;-65
2022/07/23 09:30:30;;;;;;;3.95;1.15;;;;;;;29.02;51.89;99689.58;1731607;81;20978;-67
2022/07/23 09:33:14;;;;;;;2.33;1.10;;;;;;;28.85;51.70;99693.13;1733398;81;21047;-63
2022/07/23 09:35:54;;;;;;;1.92;0.88;;;;;;;28.64;52.09;99688.82;1711418;81;20951;-67
2022/07/23 09:38:22;;;;;;;3.58;0.80;;;;;;;28.72;57.91;99691.09;1735834;82;21001;-68
2022/07/23 09:41:11;;;;;;;1.90;0.78;;;;;;;28.86;56.68;99683.54;1724723;81;20987;-64
2022/07/23 09:43:37;;;;;;;1.70;0.75;;;;;;;28.90;54.48;99683.55;1694589;83;21002;-64
2022/07/23 09:46:26;;;;;;;3.90;0.65;;;;;;;28.76;54.23;99682.10;1689935;83;21051;-63
2022/07/23 09:48:54;;;;;;;2.30;0.70;;;;;;;28.57;53.99;99675.59;1692708;84;21497;-64
2022/07/23 09:51:36;;;;;;;3.67;0.72;;;;;;;28.45;54.04;99682.92;1704463;82;21054;-66
2022/07/23 09:54:02;;;;;;;2.02;0.80;;;;;;;28.28;54.16;99687.03;1671484;85;21078;-66
2022/07/23 09:56:29;;;;;;;2.08;0.90;;;;;;;28.06;54.28;99680.47;1668905;84;21613;-66
2022/07/23 09:59:11;;;;;;;2.75;0.80;;;;;;;27.96;54.31;99678.41;1671043;85;21018;-66
2022/07/23 10:01:33;;;;;;;3.02;1.00;;;;;;;27.91;59.15;99682.98;1675867;84;21090;-65
2022/07/23 10:03:59;;;;;;;4.28;0.90;;;;;;;27.92;61.52;99678.39;1674333;84;21895;-66
2022/07/23 10:06:28;;;;;;;3.30;0.80;;;;;;;27.97;63.05;99673.84;1672197;84;21538;-65
2022/07/23 10:09:13;;;;;;;3.08;0.90;;;;;;;28.08;68.51;99669.74;1667600;83;20993;-65
2022/07/23 10:11:41;;;;;;;1.77;0.95;;;;;;;28.18;62.69;99668.41;1679472;83;21385;-65
2022/07/23 10:14:09;;;;;;;1.45;0.85;;;;;;;28.23;62.21;99663.63;1678867;84;21026;-65
2022/07/23 10:16:38;;;;;;;4.70;0.90;;;;;;;28.23;63.25;99667.23;1661628;85;21058;-65
2022/07/23 10:19:05;;;;;;;1.80;0.90;;;;;;;28.23;63.06;99660.24;1658957;85;21003;-65
2022/07/23 10:21:49;;;;;;;2.17;0.95;;;;;;;28.17;62.62;99658.98;1660040;85;21067;-65
2022/07/23 10:24:38;;;;;;;2.05;0.90;;;;;;;28.05;63.66;99670.50;1663076;84;21020;-66
2022/07/23 10:27:39;;;;;;;2.90;1.05;;;;;;;27.93;66.65;99661.02;1672575;84;21039;-66
2022/07/23 10:30:28;;;;;;;3.37;1.07;;;;;;;27.74;68.13;99652.28;1675962;85;21299;-66
2022/07/23 10:33:06;;;;;;;3.40;1.05;;;;;;;27.55;73.42;99657.55;1675422;84;21647;-67
2022/07/23 10:36:14;;;;;;;1.30;0.85;;;;;;;27.58;73.82;99655.97;1719343;81;20999;-66
2022/07/23 10:39:02;;;;;;;1.90;0.93;;;;;;;27.66;74.98;99655.65;1703346;83;20999;-65
2022/07/23 10:41:36;;;;;;;3.15;1.10;;;;;;;27.57;71.42;99649.56;1719763;81;21620;-66
2022/07/23 10:44:17;;;;;;;4.05;1.10;;;;;;;27.47;71.58;99649.48;1719764;81;21038;-66
2022/07/23 10:49:48;;;;;;;4.12;0.98;;;;;;;27.30;72.42;99652.31;1662259;86;21461;-66
2022/07/23 10:52:18;;;;;;;3.85;1.20;;;;;;;27.16;72.50;99652.98;1649861;85;21080;-66
2022/07/23 10:54:51;;;;;;;3.87;1.40;;;;;;;27.05;76.27;99652.07;1722072;81;21013;-66
2022/07/23 10:57:26;;;;;;;3.33;1.10;;;;;;;27.00;77.77;99654.39;1724699;81;21562;-66
2022/07/23 11:02:35;;;;;;;3.42;1.20;;;;;;;27.12;81.41;99652.73;1695044;83;21059;-67
2022/07/23 11:05:08;;;;;;;1.95;1.10;;;;;;;27.37;92.06;99644.58;1705616;81;20981;-67
2022/07/23 11:07:36;;;;;;;3.50;1.00;;;;;;;27.65;85.62;99644.84;1720473;81;21058;-67
2022/07/23 11:10:04;;;;;;;1.35;0.80;;;;;;;27.88;76.07;99643.21;1664848;85;21418;-64
2022/07/23 11:12:32;;;;;;;2.65;0.90;;;;;;;27.94;73.96;99638.84;1720818;81;21054;-67
2022/07/23 11:15:07;;;;;;;2.30;1.05;;;;;;;28.06;74.70;99637.10;1699764;81;20984;-65
2022/07/23 11:17:41;;;;;;;1.67;1.07;;;;;;;28.21;75.73;99642.22;1715873;82;21146;-66
2022/07/23 11:20:15;;;;;;;2.17;1.00;;;;;;;28.31;68.90;99642.86;1714052;83;21015;-66
2022/07/23 11:22:57;;;;;;;2.47;0.95;;;;;;;28.29;68.59;99639.67;1718478;82;21578;-66
2022/07/23 11:25:29;;;;;;;3.75;1.00;;;;;;;28.23;70.74;99638.45;1720678;81;20976;-67
2022/07/23 11:28:09;;;;;;;3.25;1.12;;;;;;;28.21;67.05;99628.22;1729933;81;21133;-66
2022/07/23 11:30:40;;;;;;;1.15;0.78;;;;;;;28.24;68.97;99633.03;1732896;81;21056;-66
2022/07/23 11:33:16;;;;;;;3.90;1.20;;;;;;;28.25;62.94;99625.66;1722048;81;21106;-66
2022/07/23 11:35:47;;;;;;;2.35;0.90;;;;;;;28.29;65.68;99622.28;1715158;82;20990;-67
2022/07/23 11:38:20;;;;;;;1.62;0.90;;;;;;;28.37;63.71;99622.52;1728091;81;22027;-67
2022/07/23 11:40:54;;;;;;;2.15;0.82;;;;;;;28.48;68.37;99628.97;1722558;83;21001;-66
2022/07/23 11:43:22;;;;;;;3.33;1.00;;;;;;;28.59;64.07;99618.58;1724705;83;21131;-66
2022/07/23 11:45:51;;;;;;;1.45;0.80;;;;;;;28.68;66.58;99622.45;1719510;81;21451;-66